sensor_id;sensor_type;location;lat;lon;timestamp;temperature;humidity
51305;HTU21D;37392;50.964;6.952;2023-02-15T00:01:54;2.30;109.96
51305;HTU21D;37392;50.964;6.952;2023-02-15T00:04:22;2.31;110.11
51305;HTU21D;37392;50.964;6.952;2023-02-15T00:06:49;2.32;110.17
51305;HTU21D;37392;50.964;6.952;2023-02-15T00:09:18;2.29;110.27
51305;HTU21D;37392;50.964;6.952;2023-02-15T00:11:44;2.23;110.52
51305;HTU21D;37392;50.964;6.952;2023-02-15T00:14:19;2.22;110.84
51305;HTU21D;37392;50.964;6.952;2023-02-15T00:16:50;2.14;110.80
51305;HTU21D;37392;50.964;6.952;2023-02-15T00:19:18;2.13;111.02
51305;HTU21D;37392;50.964;6.952;2023-02-15T00:21:45;2.02;111.16
51305;HTU21D;37392;50.964;6.952;2023-02-15T00:24:13;2.00;111.53
51305;HTU21D;37392;50.964;6.952;2023-02-15T00:26:41;2.07;111.71
51305;HTU21D;37392;50.964;6.952;2023-02-15T00:29:09;2.02;111.61
51305;HTU21D;37392;50.964;6.952;2023-02-15T00:31:36;2.14;111.36
51305;HTU21D;37392;50.964;6.952;2023-02-15T00:34:05;2.13;111.24
51305;HTU21D;37392;50.964;6.952;2023-02-15T00:36:40;2.13;111.21
51305;HTU21D;37392;50.964;6.952;2023-02-15T00:39:06;2.10;111.07
51305;HTU21D;37392;50.964;6.952;2023-02-15T00:41:32;2.05;111.23
51305;HTU21D;37392;50.964;6.952;2023-02-15T00:43:58;2.02;111.44
51305;HTU21D;37392;50.964;6.952;2023-02-15T00:46:24;2.06;111.71
51305;HTU21D;37392;50.964;6.952;2023-02-15T00:48:50;1.99;111.46
51305;HTU21D;37392;50.964;6.952;2023-02-15T00:51:16;1.93;111.63
51305;HTU21D;37392;50.964;6.952;2023-02-15T00:53:42;1.90;111.97
51305;HTU21D;37392;50.964;6.952;2023-02-15T00:56:10;1.95;112.06
51305;HTU21D;37392;50.964;6.952;2023-02-15T00:58:36;1.96;111.91
51305;HTU21D;37392;50.964;6.952;2023-02-15T01:01:09;1.96;111.88
51305;HTU21D;37392;50.964;6.952;2023-02-15T01:03:35;1.94;111.81
51305;HTU21D;37392;50.964;6.952;2023-02-15T01:06:02;1.92;111.94
51305;HTU21D;37392;50.964;6.952;2023-02-15T01:08:29;1.84;112.03
51305;HTU21D;37392;50.964;6.952;2023-02-15T01:10:55;1.83;112.27
51305;HTU21D;37392;50.964;6.952;2023-02-15T01:13:21;1.79;112.56
51305;HTU21D;37392;50.964;6.952;2023-02-15T01:15:53;1.86;112.60
51305;HTU21D;37392;50.964;6.952;2023-02-15T01:18:19;1.87;112.41
51305;HTU21D;37392;50.964;6.952;2023-02-15T01:20:46;1.85;112.24
51305;HTU21D;37392;50.964;6.952;2023-02-15T01:23:12;1.69;112.34
51305;HTU21D;37392;50.964;6.952;2023-02-15T01:25:38;1.72;112.85
51305;HTU21D;37392;50.964;6.952;2023-02-15T01:28:04;1.73;112.72
51305;HTU21D;37392;50.964;6.952;2023-02-15T01:30:30;1.77;112.80
51305;HTU21D;37392;50.964;6.952;2023-02-15T01:32:56;1.81;112.70
51305;HTU21D;37392;50.964;6.952;2023-02-15T01:35:23;1.80;112.52
51305;HTU21D;37392;50.964;6.952;2023-02-15T01:37:48;1.76;112.60
51305;HTU21D;37392;50.964;6.952;2023-02-15T01:40:16;1.69;112.64
51305;HTU21D;37392;50.964;6.952;2023-02-15T01:42:43;1.62;112.90
51305;HTU21D;37392;50.964;6.952;2023-02-15T01:45:26;1.57;113.25
51305;HTU21D;37392;50.964;6.952;2023-02-15T01:53:13;1.57;113.68
51305;HTU21D;37392;50.964;6.952;2023-02-15T01:56:03;1.65;113.35
51305;HTU21D;37392;50.964;6.952;2023-02-15T01:58:54;1.52;113.45
51305;HTU21D;37392;50.964;6.952;2023-02-15T02:01:24;1.46;113.77
51305;HTU21D;37392;50.964;6.952;2023-02-15T02:04:17;1.52;114.06
51305;HTU21D;37392;50.964;6.952;2023-02-15T02:06:48;1.53;113.85
51305;HTU21D;37392;50.964;6.952;2023-02-15T02:09:15;1.62;113.78
51305;HTU21D;37392;50.964;6.952;2023-02-15T02:11:41;1.56;113.67
51305;HTU21D;37392;50.964;6.952;2023-02-15T02:14:10;1.57;113.66
51305;HTU21D;37392;50.964;6.952;2023-02-15T02:31:43;1.45;113.96
51305;HTU21D;37392;50.964;6.952;2023-02-15T02:34:30;1.42;114.09
51305;HTU21D;37392;50.964;6.952;2023-02-15T02:43:05;1.43;114.22
51305;HTU21D;37392;50.964;6.952;2023-02-15T02:46:00;1.45;114.25
51305;HTU21D;37392;50.964;6.952;2023-02-15T02:48:32;1.42;114.04
51305;HTU21D;37392;50.964;6.952;2023-02-15T02:50:58;1.39;114.06
51305;HTU21D;37392;50.964;6.952;2023-02-15T02:53:24;1.41;114.09
51305;HTU21D;37392;50.964;6.952;2023-02-15T02:55:57;1.36;114.19
51305;HTU21D;37392;50.964;6.952;2023-02-15T03:01:20;1.35;114.35
51305;HTU21D;37392;50.964;6.952;2023-02-15T03:03:59;1.34;114.30
51305;HTU21D;37392;50.964;6.952;2023-02-15T03:06:41;1.35;114.29
51305;HTU21D;37392;50.964;6.952;2023-02-15T03:09:45;1.31;114.31
51305;HTU21D;37392;50.964;6.952;2023-02-15T03:12:22;1.22;114.47
51305;HTU21D;37392;50.964;6.952;2023-02-15T03:15:22;1.21;114.45
51305;HTU21D;37392;50.964;6.952;2023-02-15T03:17:55;1.20;114.76
51305;HTU21D;37392;50.964;6.952;2023-02-15T03:20:30;1.16;114.96
51305;HTU21D;37392;50.964;6.952;2023-02-15T03:23:03;1.10;114.90
51305;HTU21D;37392;50.964;6.952;2023-02-15T03:25:35;1.10;115.22
51305;HTU21D;37392;50.964;6.952;2023-02-15T03:28:10;0.96;115.43
51305;HTU21D;37392;50.964;6.952;2023-02-15T03:30:48;1.16;115.53
51305;HTU21D;37392;50.964;6.952;2023-02-15T03:33:18;1.12;114.93
51305;HTU21D;37392;50.964;6.952;2023-02-15T03:35:50;1.07;115.11
51305;HTU21D;37392;50.964;6.952;2023-02-15T03:38:27;1.07;115.20
51305;HTU21D;37392;50.964;6.952;2023-02-15T03:40:56;1.07;115.50
51305;HTU21D;37392;50.964;6.952;2023-02-15T03:46:33;0.98;115.36
51305;HTU21D;37392;50.964;6.952;2023-02-15T03:49:08;1.05;115.70
51305;HTU21D;37392;50.964;6.952;2023-02-15T03:51:39;1.03;115.41
51305;HTU21D;37392;50.964;6.952;2023-02-15T03:54:25;1.01;115.33
51305;HTU21D;37392;50.964;6.952;2023-02-15T03:57:28;1.03;115.32
51305;HTU21D;37392;50.964;6.952;2023-02-15T04:00:24;1.03;115.10
51305;HTU21D;37392;50.964;6.952;2023-02-15T04:05:45;0.94;115.45
51305;HTU21D;37392;50.964;6.952;2023-02-15T04:08:12;0.92;115.48
51305;HTU21D;37392;50.964;6.952;2023-02-15T04:10:38;0.93;115.54
51305;HTU21D;37392;50.964;6.952;2023-02-15T04:13:24;0.89;115.59
51305;HTU21D;37392;50.964;6.952;2023-02-15T04:15:55;0.81;115.63
51305;HTU21D;37392;50.964;6.952;2023-02-15T04:18:42;0.82;115.90
51305;HTU21D;37392;50.964;6.952;2023-02-15T04:21:28;0.84;116.28
51305;HTU21D;37392;50.964;6.952;2023-02-15T04:24:14;0.91;115.95
51305;HTU21D;37392;50.964;6.952;2023-02-15T04:26:59;0.94;115.82
51305;HTU21D;37392;50.964;6.952;2023-02-15T04:29:26;0.95;115.50
51305;HTU21D;37392;50.964;6.952;2023-02-15T04:31:54;0.97;115.66
51305;HTU21D;37392;50.964;6.952;2023-02-15T04:34:20;0.99;115.25
51305;HTU21D;37392;50.964;6.952;2023-02-15T04:36:46;0.99;115.12
51305;HTU21D;37392;50.964;6.952;2023-02-15T04:39:13;0.93;115.12
51305;HTU21D;37392;50.964;6.952;2023-02-15T04:41:40;0.92;115.22
51305;HTU21D;37392;50.964;6.952;2023-02-15T04:44:06;0.93;115.23
51305;HTU21D;37392;50.964;6.952;2023-02-15T04:46:31;0.89;115.28
51305;HTU21D;37392;50.964;6.952;2023-02-15T04:48:58;0.84;115.29
51305;HTU21D;37392;50.964;6.952;2023-02-15T04:51:24;0.81;115.41
51305;HTU21D;37392;50.964;6.952;2023-02-15T04:53:49;0.74;115.63
51305;HTU21D;37392;50.964;6.952;2023-02-15T04:56:18;0.68;115.86
51305;HTU21D;37392;50.964;6.952;2023-02-15T04:58:47;0.74;116.18
51305;HTU21D;37392;50.964;6.952;2023-02-15T05:01:13;0.77;115.88
51305;HTU21D;37392;50.964;6.952;2023-02-15T05:03:39;0.75;115.88
51305;HTU21D;37392;50.964;6.952;2023-02-15T05:06:05;0.81;115.62
51305;HTU21D;37392;50.964;6.952;2023-02-15T05:08:31;0.76;115.60
51305;HTU21D;37392;50.964;6.952;2023-02-15T05:10:57;0.75;115.42
51305;HTU21D;37392;50.964;6.952;2023-02-15T05:13:23;0.78;115.35
51305;HTU21D;37392;50.964;6.952;2023-02-15T05:15:50;0.72;115.31
51305;HTU21D;37392;50.964;6.952;2023-02-15T05:18:17;0.71;115.54
51305;HTU21D;37392;50.964;6.952;2023-02-15T05:20:43;0.71;115.76
51305;HTU21D;37392;50.964;6.952;2023-02-15T05:23:10;0.74;115.64
51305;HTU21D;37392;50.964;6.952;2023-02-15T05:25:35;0.65;115.48
51305;HTU21D;37392;50.964;6.952;2023-02-15T05:28:30;0.60;115.61
51305;HTU21D;37392;50.964;6.952;2023-02-15T05:33:38;0.59;115.90
51305;HTU21D;37392;50.964;6.952;2023-02-15T05:36:05;0.59;115.76
51305;HTU21D;37392;50.964;6.952;2023-02-15T05:38:31;0.58;115.77
51305;HTU21D;37392;50.964;6.952;2023-02-15T05:40:57;0.54;115.93
51305;HTU21D;37392;50.964;6.952;2023-02-15T05:43:23;0.59;115.83
51305;HTU21D;37392;50.964;6.952;2023-02-15T05:45:53;0.61;115.65
51305;HTU21D;37392;50.964;6.952;2023-02-15T05:48:22;0.61;115.85
51305;HTU21D;37392;50.964;6.952;2023-02-15T05:53:36;0.71;115.25
51305;HTU21D;37392;50.964;6.952;2023-02-15T05:56:04;0.65;114.99
51305;HTU21D;37392;50.964;6.952;2023-02-15T05:58:40;0.65;115.19
51305;HTU21D;37392;50.964;6.952;2023-02-15T06:01:18;0.57;115.19
51305;HTU21D;37392;50.964;6.952;2023-02-15T06:03:46;0.58;115.33
51305;HTU21D;37392;50.964;6.952;2023-02-15T06:06:11;0.57;115.47
51305;HTU21D;37392;50.964;6.952;2023-02-15T06:08:39;0.60;115.41
51305;HTU21D;37392;50.964;6.952;2023-02-15T06:11:05;0.57;115.15
51305;HTU21D;37392;50.964;6.952;2023-02-15T06:13:31;0.51;115.22
51305;HTU21D;37392;50.964;6.952;2023-02-15T06:15:57;0.60;115.17
51305;HTU21D;37392;50.964;6.952;2023-02-15T06:18:23;0.59;114.95
51305;HTU21D;37392;50.964;6.952;2023-02-15T06:20:49;0.57;114.96
51305;HTU21D;37392;50.964;6.952;2023-02-15T06:23:15;0.58;115.06
51305;HTU21D;37392;50.964;6.952;2023-02-15T06:25:41;0.55;115.01
51305;HTU21D;37392;50.964;6.952;2023-02-15T06:28:06;0.59;114.80
51305;HTU21D;37392;50.964;6.952;2023-02-15T06:30:32;0.65;114.57
51305;HTU21D;37392;50.964;6.952;2023-02-15T06:32:58;0.65;114.59
51305;HTU21D;37392;50.964;6.952;2023-02-15T06:35:24;0.61;114.61
51305;HTU21D;37392;50.964;6.952;2023-02-15T06:37:50;0.63;114.62
51305;HTU21D;37392;50.964;6.952;2023-02-15T06:40:15;0.54;114.81
51305;HTU21D;37392;50.964;6.952;2023-02-15T06:42:42;0.63;114.75
51305;HTU21D;37392;50.964;6.952;2023-02-15T06:45:08;0.64;114.48
51305;HTU21D;37392;50.964;6.952;2023-02-15T06:47:34;0.65;114.26
51305;HTU21D;37392;50.964;6.952;2023-02-15T06:50:00;0.63;114.26
51305;HTU21D;37392;50.964;6.952;2023-02-15T06:52:26;0.62;114.28
51305;HTU21D;37392;50.964;6.952;2023-02-15T06:54:51;0.64;114.19
51305;HTU21D;37392;50.964;6.952;2023-02-15T06:57:17;0.68;114.02
51305;HTU21D;37392;50.964;6.952;2023-02-15T06:59:42;0.64;113.91
51305;HTU21D;37392;50.964;6.952;2023-02-15T07:02:10;0.72;113.77
51305;HTU21D;37392;50.964;6.952;2023-02-15T07:04:36;0.74;113.63
51305;HTU21D;37392;50.964;6.952;2023-02-15T07:07:02;0.82;113.65
51305;HTU21D;37392;50.964;6.952;2023-02-15T07:09:28;1.04;113.87
51305;HTU21D;37392;50.964;6.952;2023-02-15T07:11:53;1.36;112.71
51305;HTU21D;37392;50.964;6.952;2023-02-15T07:14:37;1.64;111.03
51305;HTU21D;37392;50.964;6.952;2023-02-15T07:17:03;1.90;109.86
51305;HTU21D;37392;50.964;6.952;2023-02-15T07:19:28;2.11;108.69
51305;HTU21D;37392;50.964;6.952;2023-02-15T07:21:54;2.37;107.55
51305;HTU21D;37392;50.964;6.952;2023-02-15T07:24:19;2.60;106.50
51305;HTU21D;37392;50.964;6.952;2023-02-15T07:26:45;2.79;105.72
51305;HTU21D;37392;50.964;6.952;2023-02-15T07:29:11;3.11;104.34
51305;HTU21D;37392;50.964;6.952;2023-02-15T07:31:36;3.20;104.14
51305;HTU21D;37392;50.964;6.952;2023-02-15T07:34:02;3.45;102.91
51305;HTU21D;37392;50.964;6.952;2023-02-15T07:36:27;3.57;102.57
51305;HTU21D;37392;50.964;6.952;2023-02-15T07:38:53;3.74;100.86
51305;HTU21D;37392;50.964;6.952;2023-02-15T07:41:19;3.91;99.89
51305;HTU21D;37392;50.964;6.952;2023-02-15T07:43:45;4.09;99.35
51305;HTU21D;37392;50.964;6.952;2023-02-15T07:46:14;4.32;98.61
51305;HTU21D;37392;50.964;6.952;2023-02-15T07:48:43;4.34;97.16
51305;HTU21D;37392;50.964;6.952;2023-02-15T07:51:10;4.48;96.90
51305;HTU21D;37392;50.964;6.952;2023-02-15T07:53:37;4.51;96.30
51305;HTU21D;37392;50.964;6.952;2023-02-15T07:56:06;4.78;95.39
51305;HTU21D;37392;50.964;6.952;2023-02-15T07:58:34;4.91;94.86
51305;HTU21D;37392;50.964;6.952;2023-02-15T08:01:27;5.15;94.18
51305;HTU21D;37392;50.964;6.952;2023-02-15T08:03:57;5.23;92.61
51305;HTU21D;37392;50.964;6.952;2023-02-15T08:06:24;5.50;92.44
51305;HTU21D;37392;50.964;6.952;2023-02-15T08:08:51;5.89;91.34
51305;HTU21D;37392;50.964;6.952;2023-02-15T08:14:12;6.34;88.35
51305;HTU21D;37392;50.964;6.952;2023-02-15T08:16:47;6.64;85.34
51305;HTU21D;37392;50.964;6.952;2023-02-15T08:19:19;6.46;85.47
51305;HTU21D;37392;50.964;6.952;2023-02-15T08:21:54;6.50;84.78
51305;HTU21D;37392;50.964;6.952;2023-02-15T08:24:28;6.76;83.96
51305;HTU21D;37392;50.964;6.952;2023-02-15T08:26:55;6.91;82.91
51305;HTU21D;37392;50.964;6.952;2023-02-15T08:29:23;7.05;82.13
51305;HTU21D;37392;50.964;6.952;2023-02-15T08:31:57;7.23;81.14
51305;HTU21D;37392;50.964;6.952;2023-02-15T08:34:29;6.91;81.22
51305;HTU21D;37392;50.964;6.952;2023-02-15T08:36:55;6.90;82.20
51305;HTU21D;37392;50.964;6.952;2023-02-15T08:39:21;7.08;81.45
51305;HTU21D;37392;50.964;6.952;2023-02-15T08:41:47;7.37;80.36
51305;HTU21D;37392;50.964;6.952;2023-02-15T08:44:15;7.62;79.59
51305;HTU21D;37392;50.964;6.952;2023-02-15T08:46:43;7.82;79.09
51305;HTU21D;37392;50.964;6.952;2023-02-15T08:49:13;8.34;77.69
51305;HTU21D;37392;50.964;6.952;2023-02-15T08:51:43;8.14;76.95
51305;HTU21D;37392;50.964;6.952;2023-02-15T08:54:12;8.13;77.36
51305;HTU21D;37392;50.964;6.952;2023-02-15T08:56:41;8.36;76.64
51305;HTU21D;37392;50.964;6.952;2023-02-15T08:59:12;8.18;76.37
51305;HTU21D;37392;50.964;6.952;2023-02-15T09:01:43;8.32;76.57
51305;HTU21D;37392;50.964;6.952;2023-02-15T09:04:09;8.50;75.84
51305;HTU21D;37392;50.964;6.952;2023-02-15T09:06:37;8.98;74.87
51305;HTU21D;37392;50.964;6.952;2023-02-15T09:09:03;9.09;73.54
51305;HTU21D;37392;50.964;6.952;2023-02-15T09:11:32;9.52;73.16
51305;HTU21D;37392;50.964;6.952;2023-02-15T09:14:20;9.65;71.48
51305;HTU21D;37392;50.964;6.952;2023-02-15T09:16:47;9.79;71.50
51305;HTU21D;37392;50.964;6.952;2023-02-15T09:19:16;9.99;70.57
51305;HTU21D;37392;50.964;6.952;2023-02-15T09:21:43;10.20;69.69
51305;HTU21D;37392;50.964;6.952;2023-02-15T09:24:10;10.09;69.52
51305;HTU21D;37392;50.964;6.952;2023-02-15T09:26:40;10.35;69.68
51305;HTU21D;37392;50.964;6.952;2023-02-15T09:29:08;10.41;68.57
51305;HTU21D;37392;50.964;6.952;2023-02-15T09:31:46;10.40;68.56
51305;HTU21D;37392;50.964;6.952;2023-02-15T09:34:16;10.57;68.20
51305;HTU21D;37392;50.964;6.952;2023-02-15T09:36:44;11.09;67.31
51305;HTU21D;37392;50.964;6.952;2023-02-15T09:39:13;11.47;66.72
51305;HTU21D;37392;50.964;6.952;2023-02-15T10:10:39;11.93;63.93
51305;HTU21D;37392;50.964;6.952;2023-02-15T10:13:39;11.83;63.93
51305;HTU21D;37392;50.964;6.952;2023-02-15T10:16:21;12.19;63.95
51305;HTU21D;37392;50.964;6.952;2023-02-15T10:19:08;12.56;62.53
51305;HTU21D;37392;50.964;6.952;2023-02-15T10:22:10;12.61;61.90
51305;HTU21D;37392;50.964;6.952;2023-02-15T10:27:44;12.80;61.86
51305;HTU21D;37392;50.964;6.952;2023-02-15T10:30:13;12.42;61.92
51305;HTU21D;37392;50.964;6.952;2023-02-15T10:33:03;12.22;63.04
51305;HTU21D;37392;50.964;6.952;2023-02-15T10:41:21;12.90;62.21
51305;HTU21D;37392;50.964;6.952;2023-02-15T10:55:07;12.88;61.70
51305;HTU21D;37392;50.964;6.952;2023-02-15T10:57:52;13.09;61.44
51305;HTU21D;37392;50.964;6.952;2023-02-15T11:00:25;12.89;61.75
51305;HTU21D;37392;50.964;6.952;2023-02-15T11:03:10;13.05;61.70
51305;HTU21D;37392;50.964;6.952;2023-02-15T11:06:12;12.36;62.71
51305;HTU21D;37392;50.964;6.952;2023-02-15T11:08:43;11.27;65.56
51305;HTU21D;37392;50.964;6.952;2023-02-15T11:11:19;10.75;67.76
51305;HTU21D;37392;50.964;6.952;2023-02-15T11:13:52;10.27;69.60
51305;HTU21D;37392;50.964;6.952;2023-02-15T11:16:46;10.25;70.55
51305;HTU21D;37392;50.964;6.952;2023-02-15T11:19:30;10.09;71.01
51305;HTU21D;37392;50.964;6.952;2023-02-15T11:22:04;9.97;71.48
51305;HTU21D;37392;50.964;6.952;2023-02-15T11:24:40;9.83;71.86
51305;HTU21D;37392;50.964;6.952;2023-02-15T11:27:22;9.75;72.59
51305;HTU21D;37392;50.964;6.952;2023-02-15T11:30:17;9.57;72.96
51305;HTU21D;37392;50.964;6.952;2023-02-15T11:32:47;9.62;73.25
51305;HTU21D;37392;50.964;6.952;2023-02-15T11:35:40;9.64;73.38
51305;HTU21D;37392;50.964;6.952;2023-02-15T11:38:17;9.71;73.11
51305;HTU21D;37392;50.964;6.952;2023-02-15T11:40:54;9.69;73.48
51305;HTU21D;37392;50.964;6.952;2023-02-15T11:43:41;9.66;73.28
51305;HTU21D;37392;50.964;6.952;2023-02-15T11:46:11;9.69;73.43
51305;HTU21D;37392;50.964;6.952;2023-02-15T11:48:38;9.67;73.51
51305;HTU21D;37392;50.964;6.952;2023-02-15T11:51:04;9.77;73.57
51305;HTU21D;37392;50.964;6.952;2023-02-15T11:53:36;9.90;73.36
51305;HTU21D;37392;50.964;6.952;2023-02-15T11:56:03;9.90;73.39
51305;HTU21D;37392;50.964;6.952;2023-02-15T12:01:14;9.97;73.60
51305;HTU21D;37392;50.964;6.952;2023-02-15T12:04:20;10.09;73.22
51305;HTU21D;37392;50.964;6.952;2023-02-15T12:06:54;10.00;73.23
51305;HTU21D;37392;50.964;6.952;2023-02-15T12:09:46;9.98;73.46
51305;HTU21D;37392;50.964;6.952;2023-02-15T12:12:29;10.05;73.70
51305;HTU21D;37392;50.964;6.952;2023-02-15T12:15:05;10.15;73.44
51305;HTU21D;37392;50.964;6.952;2023-02-15T12:17:52;10.19;73.33
51305;HTU21D;37392;50.964;6.952;2023-02-15T12:22:53;10.27;73.19
51305;HTU21D;37392;50.964;6.952;2023-02-15T12:28:03;10.51;72.76
51305;HTU21D;37392;50.964;6.952;2023-02-15T12:30:42;10.55;72.57
51305;HTU21D;37392;50.964;6.952;2023-02-15T12:33:29;10.58;72.59
51305;HTU21D;37392;50.964;6.952;2023-02-15T12:36:11;10.62;72.52
51305;HTU21D;37392;50.964;6.952;2023-02-15T12:38:40;10.59;72.44
51305;HTU21D;37392;50.964;6.952;2023-02-15T12:41:23;10.52;72.48
51305;HTU21D;37392;50.964;6.952;2023-02-15T12:44:06;10.62;72.74
51305;HTU21D;37392;50.964;6.952;2023-02-15T12:46:40;10.57;72.59
51305;HTU21D;37392;50.964;6.952;2023-02-15T12:49:20;10.52;72.99
51305;HTU21D;37392;50.964;6.952;2023-02-15T12:57:27;10.79;72.94
51305;HTU21D;37392;50.964;6.952;2023-02-15T13:00:23;10.79;72.64
51305;HTU21D;37392;50.964;6.952;2023-02-15T13:02:55;10.82;72.65
51305;HTU21D;37392;50.964;6.952;2023-02-15T13:07:56;10.88;72.61
51305;HTU21D;37392;50.964;6.952;2023-02-15T13:10:33;10.85;72.61
51305;HTU21D;37392;50.964;6.952;2023-02-15T13:13:09;10.89;72.40
51305;HTU21D;37392;50.964;6.952;2023-02-15T13:15:38;10.92;72.40
51305;HTU21D;37392;50.964;6.952;2023-02-15T13:18:13;11.04;72.18
51305;HTU21D;37392;50.964;6.952;2023-02-15T13:20:42;11.04;71.82
51305;HTU21D;37392;50.964;6.952;2023-02-15T13:23:29;11.08;71.84
51305;HTU21D;37392;50.964;6.952;2023-02-15T13:25:58;11.07;71.88
51305;HTU21D;37392;50.964;6.952;2023-02-15T13:28:47;11.08;71.98
51305;HTU21D;37392;50.964;6.952;2023-02-15T13:31:18;11.12;71.77
51305;HTU21D;37392;50.964;6.952;2023-02-15T13:33:54;11.08;71.69
51305;HTU21D;37392;50.964;6.952;2023-02-15T13:36:37;11.11;71.67
51305;HTU21D;37392;50.964;6.952;2023-02-15T13:39:38;11.11;71.67
51305;HTU21D;37392;50.964;6.952;2023-02-15T13:54:13;11.36;71.39
51305;HTU21D;37392;50.964;6.952;2023-02-15T14:03:05;11.40;71.03
51305;HTU21D;37392;50.964;6.952;2023-02-15T14:17:51;11.42;71.22
51305;HTU21D;37392;50.964;6.952;2023-02-15T14:20:47;11.45;71.03
51305;HTU21D;37392;50.964;6.952;2023-02-15T14:23:50;11.44;71.03
51305;HTU21D;37392;50.964;6.952;2023-02-15T14:26:49;11.46;71.26
51305;HTU21D;37392;50.964;6.952;2023-02-15T14:29:59;11.44;71.37
51305;HTU21D;37392;50.964;6.952;2023-02-15T14:32:36;11.41;71.73
51305;HTU21D;37392;50.964;6.952;2023-02-15T14:35:13;11.39;71.78
51305;HTU21D;37392;50.964;6.952;2023-02-15T14:43:59;11.32;72.29
51305;HTU21D;37392;50.964;6.952;2023-02-15T14:46:46;11.26;72.59
51305;HTU21D;37392;50.964;6.952;2023-02-15T14:49:32;11.28;72.54
51305;HTU21D;37392;50.964;6.952;2023-02-15T15:05:09;11.30;72.66
51305;HTU21D;37392;50.964;6.952;2023-02-15T15:20:46;11.17;73.38
51305;HTU21D;37392;50.964;6.952;2023-02-15T15:25:57;11.18;73.23
51305;HTU21D;37392;50.964;6.952;2023-02-15T15:49:14;10.79;74.86
51305;HTU21D;37392;50.964;6.952;2023-02-15T15:51:42;10.67;75.18
51305;HTU21D;37392;50.964;6.952;2023-02-15T15:54:15;10.60;75.60
51305;HTU21D;37392;50.964;6.952;2023-02-15T15:56:44;10.57;75.83
51305;HTU21D;37392;50.964;6.952;2023-02-15T15:59:24;10.57;76.07
51305;HTU21D;37392;50.964;6.952;2023-02-15T16:01:51;10.46;76.38
51305;HTU21D;37392;50.964;6.952;2023-02-15T16:04:27;10.36;76.77
51305;HTU21D;37392;50.964;6.952;2023-02-15T16:06:56;10.35;77.06
51305;HTU21D;37392;50.964;6.952;2023-02-15T16:09:25;10.19;77.59
51305;HTU21D;37392;50.964;6.952;2023-02-15T16:11:56;10.09;78.10
51305;HTU21D;37392;50.964;6.952;2023-02-15T16:14:32;10.06;78.33
51305;HTU21D;37392;50.964;6.952;2023-02-15T16:17:04;10.08;78.32
51305;HTU21D;37392;50.964;6.952;2023-02-15T16:19:38;10.03;78.56
51305;HTU21D;37392;50.964;6.952;2023-02-15T16:22:16;9.98;78.63
51305;HTU21D;37392;50.964;6.952;2023-02-15T16:25:07;9.86;79.02
51305;HTU21D;37392;50.964;6.952;2023-02-15T16:27:47;9.76;79.49
51305;HTU21D;37392;50.964;6.952;2023-02-15T16:30:24;9.71;79.78
51305;HTU21D;37392;50.964;6.952;2023-02-15T16:33:15;9.56;80.28
51305;HTU21D;37392;50.964;6.952;2023-02-15T16:41:11;9.47;81.19
51305;HTU21D;37392;50.964;6.952;2023-02-15T16:43:40;9.47;81.04
51305;HTU21D;37392;50.964;6.952;2023-02-15T16:46:19;9.39;81.36
51305;HTU21D;37392;50.964;6.952;2023-02-15T16:48:52;9.36;81.73
51305;HTU21D;37392;50.964;6.952;2023-02-15T16:51:25;9.30;81.82
51305;HTU21D;37392;50.964;6.952;2023-02-15T16:53:54;9.19;82.26
51305;HTU21D;37392;50.964;6.952;2023-02-15T16:56:26;9.16;82.50
51305;HTU21D;37392;50.964;6.952;2023-02-15T16:58:54;9.18;82.54
51305;HTU21D;37392;50.964;6.952;2023-02-15T17:01:27;9.18;82.62
51305;HTU21D;37392;50.964;6.952;2023-02-15T17:04:28;8.98;82.97
51305;HTU21D;37392;50.964;6.952;2023-02-15T17:07:04;8.96;83.26
51305;HTU21D;37392;50.964;6.952;2023-02-15T17:09:50;8.93;83.49
51305;HTU21D;37392;50.964;6.952;2023-02-15T17:12:54;8.82;83.91
51305;HTU21D;37392;50.964;6.952;2023-02-15T17:15:36;8.76;84.23
51305;HTU21D;37392;50.964;6.952;2023-02-15T17:18:50;8.73;84.45
51305;HTU21D;37392;50.964;6.952;2023-02-15T17:21:19;8.66;84.64
51305;HTU21D;37392;50.964;6.952;2023-02-15T17:23:50;8.57;85.06
51305;HTU21D;37392;50.964;6.952;2023-02-15T17:26:23;8.46;85.52
51305;HTU21D;37392;50.964;6.952;2023-02-15T17:28:55;8.47;85.62
51305;HTU21D;37392;50.964;6.952;2023-02-15T17:31:25;8.29;85.93
51305;HTU21D;37392;50.964;6.952;2023-02-15T17:33:56;8.18;86.42
51305;HTU21D;37392;50.964;6.952;2023-02-15T17:36:25;8.02;86.98
51305;HTU21D;37392;50.964;6.952;2023-02-15T17:41:28;7.92;88.03
51305;HTU21D;37392;50.964;6.952;2023-02-15T17:43:56;7.86;88.04
51305;HTU21D;37392;50.964;6.952;2023-02-15T17:46:23;7.88;88.30
51305;HTU21D;37392;50.964;6.952;2023-02-15T17:48:51;7.81;88.48
51305;HTU21D;37392;50.964;6.952;2023-02-15T17:51:22;7.89;88.48
51305;HTU21D;37392;50.964;6.952;2023-02-15T17:53:50;7.99;88.15
51305;HTU21D;37392;50.964;6.952;2023-02-15T17:56:39;7.94;88.07
51305;HTU21D;37392;50.964;6.952;2023-02-15T17:59:04;7.94;88.16
51305;HTU21D;37392;50.964;6.952;2023-02-15T18:01:40;7.87;88.29
51305;HTU21D;37392;50.964;6.952;2023-02-15T18:04:32;7.75;88.92
51305;HTU21D;37392;50.964;6.952;2023-02-15T18:07:17;7.79;88.99
51305;HTU21D;37392;50.964;6.952;2023-02-15T18:10:16;7.75;89.10
51305;HTU21D;37392;50.964;6.952;2023-02-15T18:13:01;7.78;89.01
51305;HTU21D;37392;50.964;6.952;2023-02-15T18:15:27;7.81;88.94
51305;HTU21D;37392;50.964;6.952;2023-02-15T18:17:54;7.82;88.97
51305;HTU21D;37392;50.964;6.952;2023-02-15T18:20:22;7.77;88.95
51305;HTU21D;37392;50.964;6.952;2023-02-15T18:22:51;7.74;89.09
51305;HTU21D;37392;50.964;6.952;2023-02-15T18:25:19;7.76;89.08
51305;HTU21D;37392;50.964;6.952;2023-02-15T18:27:46;7.82;88.88
51305;HTU21D;37392;50.964;6.952;2023-02-15T18:30:21;7.82;88.86
51305;HTU21D;37392;50.964;6.952;2023-02-15T18:32:50;7.81;88.83
51305;HTU21D;37392;50.964;6.952;2023-02-15T18:35:22;7.79;88.92
51305;HTU21D;37392;50.964;6.952;2023-02-15T18:37:49;7.70;88.93
51305;HTU21D;37392;50.964;6.952;2023-02-15T18:40:19;7.60;89.54
51305;HTU21D;37392;50.964;6.952;2023-02-15T18:42:47;7.58;89.88
51305;HTU21D;37392;50.964;6.952;2023-02-15T18:45:26;7.50;90.06
51305;HTU21D;37392;50.964;6.952;2023-02-15T18:47:57;7.45;90.31
51305;HTU21D;37392;50.964;6.952;2023-02-15T18:50:29;7.49;90.31
51305;HTU21D;37392;50.964;6.952;2023-02-15T18:52:57;7.44;90.44
51305;HTU21D;37392;50.964;6.952;2023-02-15T18:55:26;7.39;90.56
51305;HTU21D;37392;50.964;6.952;2023-02-15T18:57:55;7.33;90.79
51305;HTU21D;37392;50.964;6.952;2023-02-15T19:00:23;7.34;90.88
51305;HTU21D;37392;50.964;6.952;2023-02-15T19:02:52;7.29;90.88
51305;HTU21D;37392;50.964;6.952;2023-02-15T19:05:19;7.30;90.95
51305;HTU21D;37392;50.964;6.952;2023-02-15T19:07:46;7.31;90.86
51305;HTU21D;37392;50.964;6.952;2023-02-15T19:10:21;7.24;91.11
51305;HTU21D;37392;50.964;6.952;2023-02-15T19:12:49;7.22;91.23
51305;HTU21D;37392;50.964;6.952;2023-02-15T19:15:23;7.14;91.42
51305;HTU21D;37392;50.964;6.952;2023-02-15T19:17:54;7.04;91.72
51305;HTU21D;37392;50.964;6.952;2023-02-15T19:20:24;7.01;91.95